| time (UTC) | temp F | wind direction | speed knots | gust knots | rain 1hr in | rain 24hr in | rain mn in | humidity % | barometer mb |
| 20260906223719 | 99 | 200 | 2.6 | 10.4 | 0.00 | 0.00 | 0.00 | 34 | 1009.5 |
| 20260906223215 | 100 | 140 | 1.7 | 7.0 | 0.00 | 0.00 | 0.00 | 35 | 1009.4 |
| 20260906222931 | 100 | 115 | 1.7 | 7.0 | 0.00 | 0.00 | 0.00 | 36 | 1009.5 |
| 20260906222211 | 99 | 210 | 2.6 | 7.0 | 0.00 | 0.00 | 0.00 | 35 | 1009.6 |
| 20260906221655 | 100 | 166 | 3.5 | 8.7 | 0.00 | 0.00 | 0.00 | 35 | 1009.6 |
| 20260906221125 | 100 | 134 | 2.6 | 7.8 | 0.00 | 0.00 | 0.00 | 35 | 1009.5 |
| 20260906220624 | 100 | 100 | 2.6 | 7.8 | 0.00 | 0.00 | 0.00 | 35 | 1009.5 |
| 20260906220321 | 100 | 160 | 2.6 | 7.0 | 0.00 | 0.00 | 0.00 | 34 | 1009.5 |
| 20260906215535 | 100 | 122 | 2.6 | 7.8 | 0.00 | 0.00 | 0.00 | 35 | 1009.5 |
| 20260906215003 | 100 | 162 | 1.7 | 7.8 | 0.00 | 0.00 | 0.00 | 34 | 1009.5 |
| 20260906214502 | 101 | 88 | 1.7 | 7.0 | 0.00 | 0.00 | 0.00 | 34 | 1009.5 |
| 20260906214155 | 100 | 151 | 1.7 | 6.1 | 0.00 | 0.00 | 0.00 | 35 | 1009.5 |
| 20260906213405 | 100 | 129 | 2.6 | 9.6 | 0.00 | 0.00 | 0.00 | 35 | 1009.6 |
| 20260906212846 | 100 | 157 | 3.5 | 9.6 | 0.00 | 0.00 | 0.00 | 34 | 1009.8 |
| 20260906212615 | 100 | 162 | 4.3 | 10.4 | 0.00 | 0.00 | 0.00 | 34 | 1009.9 |
| 20260906211820 | 100 | 131 | 3.5 | 10.4 | 0.00 | 0.00 | 0.00 | 34 | 1009.9 |
| 20260906211518 | 101 | 82 | 1.7 | 8.7 | 0.00 | 0.00 | 0.00 | 34 | 1010.0 |
| 20260906210747 | 101 | 82 | 2.6 | 11.3 | 0.00 | 0.00 | 0.00 | 35 | 1010.1 |
| 20260906210246 | 100 | 71 | 3.5 | 11.3 | 0.00 | 0.00 | 0.00 | 36 | 1010.2 |
| 20260906205740 | 101 | 142 | 2.6 | 8.7 | 0.00 | 0.00 | 0.00 | 35 | 1010.2 |
| 20260906205244 | 101 | 87 | 1.7 | 6.1 | 0.00 | 0.00 | 0.00 | 34 | 1010.3 |
| 20260906204715 | 101 | 127 | 0.9 | 5.2 | 0.00 | 0.00 | 0.00 | 35 | 1010.4 |
| 20260906204656 | 100 | 20 | 0.9 | 6.1 | 0.00 | 0.00 | 0.00 | 35 | 1010.5 |
| 20260906203655 | 100 | 108 | 0.9 | 7.8 | 0.00 | 0.00 | 0.00 | 36 | 1010.6 |
| 20260906203154 | 100 | 38 | 1.7 | 9.6 | 0.00 | 0.00 | 0.00 | 34 | 1010.7 |
| 20260906202645 | 100 | 152 | 3.5 | 11.3 | 0.00 | 0.00 | 0.00 | 35 | 1010.7 |
| 20260906202141 | 100 | 137 | 3.5 | 9.6 | 0.00 | 0.00 | 0.00 | 34 | 1010.8 |
| 20260906201637 | 100 | 131 | 2.6 | 7.8 | 0.00 | 0.00 | 0.00 | 34 | 1010.8 |
| 20260906201136 | 101 | 152 | 1.7 | 8.7 | 0.00 | 0.00 | 0.00 | 35 | 1010.9 |
| 20260906200610 | 101 | 133 | 2.6 | 8.7 | 0.00 | 0.00 | 0.00 | 34 | 1010.8 |
| 20260906200304 | 101 | 136 | 1.7 | 6.1 | 0.00 | 0.00 | 0.00 | 34 | 1010.8 |
| 20260906195517 | 101 | 79 | 2.6 | 10.4 | 0.00 | 0.00 | 0.00 | 36 | 1010.9 |
| 20260906194952 | 101 | 171 | 2.6 | 10.4 | 0.00 | 0.00 | 0.00 | 34 | 1011.0 |
| 20260906194425 | 101 | 59 | 3.5 | 8.7 | 0.00 | 0.00 | 0.00 | 36 | 1011.0 |
| 20260906193900 | 101 | 138 | 2.6 | 6.1 | 0.00 | 0.00 | 0.00 | 33 | 1011.1 |
| 20260906193359 | 101 | 116 | 2.6 | 7.8 | 0.00 | 0.00 | 0.00 | 35 | 1011.1 |
| 20260906193055 | 101 | 153 | 2.6 | 7.8 | 0.00 | 0.00 | 0.00 | 35 | 1011.1 |
| 20260906192328 | 101 | 139 | 1.7 | 7.0 | 0.00 | 0.00 | 0.00 | 36 | 1011.2 |
| 20260906191828 | 101 | 96 | 1.7 | 4.3 | 0.00 | 0.00 | 0.00 | 36 | 1011.2 |
| 20260906191303 | 100 | 129 | 1.7 | 7.0 | 0.00 | 0.00 | 0.00 | 38 | 1011.3 |
| 20260906190740 | 100 | 158 | 2.6 | 7.0 | 0.00 | 0.00 | 0.00 | 36 | 1011.4 |
| 20260906190215 | 100 | 109 | 2.6 | 7.0 | 0.00 | 0.00 | 0.00 | 37 | 1011.4 |
| 20260906185713 | 100 | 110 | 1.7 | 7.0 | 0.00 | 0.00 | 0.00 | 38 | 1011.5 |
| 20260906185429 | 99 | 130 | 2.6 | 7.0 | 0.00 | 0.00 | 0.00 | 40 | 1011.5 |
| 20260906184711 | 98 | 137 | 2.6 | 8.7 | 0.00 | 0.00 | 0.00 | 40 | 1011.6 |
| 20260906184436 | 98 | 143 | 2.6 | 8.7 | 0.00 | 0.00 | 0.00 | 40 | 1011.6 |
| 20260906183707 | 98 | 105 | 3.5 | 8.7 | 0.00 | 0.00 | 0.00 | 39 | 1011.9 |
| 20260906183147 | 98 | 118 | 3.5 | 8.7 | 0.00 | 0.00 | 0.00 | 41 | 1011.7 |
| 20260906182628 | 98 | 138 | 2.6 | 7.0 | 0.00 | 0.00 | 0.00 | 42 | 1011.9 |
| 20260906182345 | 98 | 211 | 1.7 | 5.2 | 0.00 | 0.00 | 0.00 | 40 | 1012.0 |
| 20260906181626 | 98 | 155 | 0.9 | 5.2 | 0.00 | 0.00 | 0.00 | 41 | 1012.2 |
| 20260906181324 | 99 | 105 | 0.9 | 7.8 | 0.00 | 0.00 | 0.00 | 41 | 1012.3 |
| 20260906180541 | 98 | 135 | 1.7 | 7.8 | 0.00 | 0.00 | 0.00 | 43 | 1012.3 |
| 20260906180044 | 97 | 184 | 1.7 | 7.0 | 0.00 | 0.00 | 0.00 | 44 | 1012.4 |
| 20260906175510 | 96 | 102 | 1.7 | 6.1 | 0.00 | 0.00 | 0.00 | 46 | 1012.4 |
| 20260906175009 | 96 | 274 | 2.6 | 7.0 | 0.00 | 0.00 | 0.00 | 44 | 1012.6 |
| 20260906174509 | 96 | 219 | 2.6 | 6.1 | 0.00 | 0.00 | 0.00 | 46 | 1012.6 |
| 20260906174003 | 95 | 86 | 2.6 | 8.7 | 0.00 | 0.00 | 0.00 | 47 | 1012.7 |
| 20260906173505 | 96 | 261 | 2.6 | 7.8 | 0.00 | 0.00 | 0.00 | 45 | 1012.7 |
| 20260906172954 | 96 | 271 | 1.7 | 5.2 | 0.00 | 0.00 | 0.00 | 46 | 1012.9 |
| 20260906172454 | 96 | 140 | 1.7 | 7.8 | 0.00 | 0.00 | 0.00 | 49 | 1012.9 |
| 20260906171932 | 95 | 115 | 2.6 | 7.8 | 0.00 | 0.00 | 0.00 | 47 | 1013.0 |
| 20260906171431 | 94 | 217 | 2.6 | 7.8 | 0.00 | 0.00 | 0.00 | 48 | 1013.1 |
| 20260906170928 | 94 | 163 | 2.6 | 7.8 | 0.00 | 0.00 | 0.00 | 48 | 1013.1 |
| 20260906170649 | 94 | 141 | 1.7 | 7.0 | 0.00 | 0.00 | 0.00 | 48 | 1013.2 |
| 20260906165905 | 95 | 104 | 0.9 | 6.1 | 0.00 | 0.00 | 0.00 | 47 | 1013.2 |
| 20260906165818 | 96 | 80 | 0.9 | 4.3 | 0.00 | 0.00 | 0.00 | 48 | 1013.3 |
| 20260906164815 | 94 | 124 | 0.9 | 4.3 | 0.00 | 0.00 | 0.00 | 50 | 1013.3 |
| 20260906164519 | 93 | 121 | 1.7 | 6.1 | 0.00 | 0.00 | 0.00 | 50 | 1013.4 |
| 20260906163739 | 93 | 125 | 2.6 | 6.1 | 0.00 | 0.00 | 0.00 | 50 | 1013.5 |
| 20260906163238 | 93 | 155 | 1.7 | 6.1 | 0.00 | 0.00 | 0.00 | 52 | 1013.3 |
| 20260906162718 | 94 | 157 | 1.7 | 7.8 | 0.00 | 0.00 | 0.00 | 50 | 1013.3 |
| 20260906162413 | 93 | 101 | 0.9 | 7.8 | 0.00 | 0.00 | 0.00 | 50 | 1013.3 |
| 20260906161635 | 93 | 97 | 1.7 | 6.1 | 0.00 | 0.00 | 0.00 | 52 | 1013.3 |
| 20260906161115 | 92 | 125 | 0.9 | 6.1 | 0.00 | 0.00 | 0.00 | 53 | 1013.3 |
| 20260906160559 | 92 | 125 | 0.9 | 4.3 | 0.00 | 0.00 | 0.00 | 54 | 1013.3 |
| 20260906160058 | 92 | 82 | 0.9 | 4.3 | 0.00 | 0.00 | 0.00 | 54 | 1013.3 |
| 20260906155555 | 92 | 111 | 0.0 | 1.7 | 0.00 | 0.00 | 0.00 | 56 | 1013.3 |
| 20260906155044 | 91 | 122 | 0.9 | 4.3 | 0.00 | 0.00 | 0.00 | 57 | 1013.4 |
| 20260906154520 | 91 | 115 | 0.9 | 4.3 | 0.00 | 0.00 | 0.00 | 58 | 1013.4 |
| 20260906154016 | 90 | 129 | 0.9 | 3.5 | 0.00 | 0.00 | 0.00 | 60 | 1013.4 |
| 20260906153454 | 89 | 103 | 0.9 | 4.3 | 0.00 | 0.00 | 0.00 | 61 | 1013.3 |
| 20260906152950 | 89 | 121 | 1.7 | 3.5 | 0.00 | 0.00 | 0.00 | 62 | 1013.2 |
| 20260906152447 | 89 | 198 | 0.9 | 5.2 | 0.00 | 0.00 | 0.00 | 62 | 1013.2 |
| 20260906151918 | 89 | 60 | 0.9 | 3.5 | 0.00 | 0.00 | 0.00 | 65 | 1013.1 |
| 20260906151418 | 88 | 114 | 1.7 | 5.2 | 0.00 | 0.00 | 0.00 | 64 | 1013.2 |
| 20260906150913 | 88 | 117 | 0.9 | 5.2 | 0.00 | 0.00 | 0.00 | 64 | 1013.2 |
| 20260906150410 | 88 | 4 | 0.9 | 5.2 | 0.00 | 0.00 | 0.00 | 65 | 1013.2 |
| 20260906145842 | 88 | 127 | 0.0 | 5.2 | 0.00 | 0.00 | 0.00 | 64 | 1013.1 |
| 20260906145339 | 88 | 130 | 0.0 | 3.5 | 0.00 | 0.00 | 0.00 | 65 | 1013.1 |
| 20260906144836 | 87 | 104 | 0.9 | 3.5 | 0.00 | 0.00 | 0.00 | 66 | 1013.1 |
| 20260906144311 | 87 | 122 | 0.0 | 1.7 | 0.00 | 0.00 | 0.00 | 67 | 1013.1 |
| 20260906143743 | 86 | 322 | 0.9 | 3.5 | 0.00 | 0.00 | 0.00 | 70 | 1013.2 |
| 20260906143430 | 85 | 122 | 0.9 | 3.5 | 0.00 | 0.00 | 0.00 | 70 | 1013.2 |
| 20260906142715 | 85 | 119 | 0.9 | 4.3 | 0.00 | 0.00 | 0.00 | 70 | 1013.2 |
| 20260906142146 | 84 | 124 | 0.9 | 4.3 | 0.00 | 0.00 | 0.00 | 73 | 1013.2 |
| 20260906141644 | 84 | 120 | 0.9 | 4.3 | 0.00 | 0.00 | 0.00 | 74 | 1013.2 |
| 20260906141138 | 84 | 133 | 0.9 | 4.3 | 0.00 | 0.00 | 0.00 | 73 | 1013.2 |
| 20260906140632 | 83 | 138 | 0.9 | 3.5 | 0.00 | 0.00 | 0.00 | 75 | 1013.2 |
| 20260906140131 | 83 | 115 | 0.9 | 3.5 | 0.00 | 0.00 | 0.00 | 76 | 1013.1 |
| 20260906135618 | 82 | 133 | 0.0 | 2.6 | 0.00 | 0.00 | 0.00 | 79 | 1013.0 |
| 20260906135118 | 82 | 145 | 0.0 | 1.7 | 0.00 | 0.00 | 0.00 | 80 | 1013.0 |
| 20260906134554 | 81 | 145 | 0.0 | 1.7 | 0.00 | 0.00 | 0.00 | 82 | 1013.0 |
| 20260906134246 | 80 | 134 | 0.0 | 1.7 | 0.00 | 0.00 | 0.00 | 84 | 1013.0 |
| 20260906133524 | 79 | 116 | 0.0 | 0.9 | 0.00 | 0.00 | 0.00 | 84 | 1013.1 |
| 20260906132955 | 79 | 116 | 0.0 | 1.7 | 0.00 | 0.00 | 0.00 | 85 | 1013.0 |
| 20260906132453 | 78 | 123 | 0.0 | 0.0 | 0.00 | 0.00 | 0.00 | 87 | 1013.0 |
| 20260906131923 | 78 | 123 | 0.0 | 0.0 | 0.00 | 0.00 | 0.00 | 87 | 1013.0 |
| 20260906131358 | 78 | 123 | 0.0 | 0.0 | 0.00 | 0.00 | 0.00 | 88 | 1013.0 |
| 20260906130842 | 77 | 123 | 0.0 | 0.0 | 0.00 | 0.00 | 0.00 | 88 | 1013.0 |
| 20260906130342 | 77 | 123 | 0.0 | 0.0 | 0.00 | 0.00 | 0.00 | 88 | 1012.8 |
| 20260906125845 | 77 | 123 | 0.0 | 0.0 | 0.00 | 0.00 | 0.00 | 88 | 1012.8 |
| 20260906125316 | 76 | 123 | 0.0 | 0.0 | 0.00 | 0.00 | 0.00 | 88 | 1012.8 |
| 20260906124812 | 76 | 123 | 0.0 | 0.0 | 0.00 | 0.00 | 0.00 | 88 | 1012.7 |
| 20260906124249 | 76 | 123 | 0.0 | 0.0 | 0.00 | 0.00 | 0.00 | 88 | 1012.7 |
| 20260906123735 | 76 | 123 | 0.0 | 0.0 | 0.00 | 0.00 | 0.00 | 88 | 1012.5 |
| 20260906123206 | 76 | 123 | 0.0 | 0.0 | 0.00 | 0.00 | 0.00 | 88 | 1012.4 |
| 20260906122925 | 76 | 123 | 0.0 | 0.0 | 0.00 | 0.00 | 0.00 | 88 | 1012.4 |
| 20260906122136 | 76 | 123 | 0.0 | 0.0 | 0.00 | 0.00 | 0.00 | 88 | 1012.5 |
| 20260906121635 | 76 | 123 | 0.0 | 0.0 | 0.00 | 0.00 | 0.00 | 87 | 1012.5 |
| 20260906121111 | 76 | 123 | 0.0 | 0.0 | 0.00 | 0.00 | 0.00 | 87 | 1012.3 |
| 20260906120540 | 76 | 123 | 0.0 | 0.0 | 0.00 | 0.00 | 0.00 | 87 | 1012.4 |
| 20260906120041 | 76 | 123 | 0.0 | 0.0 | 0.00 | 0.00 | 0.00 | 87 | 1012.3 |
| 20260906115513 | 76 | 123 | 0.0 | 0.0 | 0.00 | 0.00 | 0.00 | 87 | 1012.3 |
| 20260906114958 | 76 | 123 | 0.0 | 0.0 | 0.00 | 0.00 | 0.00 | 87 | 1012.3 |
| 20260906114728 | 76 | 123 | 0.0 | 0.0 | 0.00 | 0.00 | 0.00 | 87 | 1012.2 |
| 20260906113955 | 76 | 123 | 0.0 | 0.0 | 0.00 | 0.00 | 0.00 | 87 | 1012.3 |
| 20260906113454 | 76 | 123 | 0.0 | 0.0 | 0.00 | 0.00 | 0.00 | 87 | 1012.2 |
| 20260906112956 | 76 | 123 | 0.0 | 0.0 | 0.00 | 0.00 | 0.00 | 87 | 1012.2 |
| 20260906112453 | 76 | 123 | 0.0 | 0.0 | 0.00 | 0.00 | 0.00 | 87 | 1012.1 |
| 20260906111948 | 75 | 123 | 0.0 | 0.0 | 0.00 | 0.00 | 0.00 | 87 | 1012.0 |
| 20260906111424 | 76 | 123 | 0.0 | 0.0 | 0.00 | 0.00 | 0.00 | 86 | 1012.1 |
| 20260906110922 | 76 | 123 | 0.0 | 0.0 | 0.00 | 0.00 | 0.00 | 86 | 1012.1 |
| 20260906110410 | 76 | 123 | 0.0 | 0.0 | 0.00 | 0.00 | 0.00 | 86 | 1012.0 |
| 20260906105909 | 76 | 124 | 0.0 | 0.0 | 0.00 | 0.00 | 0.00 | 85 | 1012.0 |
| 20260906105344 | 76 | 123 | 0.0 | 0.0 | 0.00 | 0.00 | 0.00 | 86 | 1012.0 |
| 20260906104842 | 76 | 123 | 0.0 | 0.0 | 0.00 | 0.00 | 0.00 | 86 | 1011.9 |
| 20260906104342 | 76 | 123 | 0.0 | 0.0 | 0.00 | 0.00 | 0.00 | 85 | 1011.9 |
| 20260906104041 | 76 | 123 | 0.0 | 0.0 | 0.00 | 0.00 | 0.00 | 85 | 1012.0 |
| 20260906103250 | 76 | 123 | 0.0 | 0.0 | 0.00 | 0.00 | 0.00 | 85 | 1011.9 |
| 20260906102740 | 76 | 123 | 0.0 | 0.0 | 0.00 | 0.00 | 0.00 | 85 | 1011.7 |
| 20260906102234 | 76 | 123 | 0.0 | 0.0 | 0.00 | 0.00 | 0.00 | 84 | 1011.7 |
| 20260906101733 | 77 | 123 | 0.0 | 0.0 | 0.00 | 0.00 | 0.00 | 84 | 1011.6 |
| 20260906101204 | 77 | 123 | 0.0 | 0.0 | 0.00 | 0.00 | 0.00 | 84 | 1011.5 |
| 20260906100700 | 77 | 123 | 0.0 | 0.0 | 0.00 | 0.00 | 0.00 | 84 | 1011.6 |
| 20260906100200 | 77 | 123 | 0.0 | 0.0 | 0.00 | 0.00 | 0.00 | 84 | 1011.6 |
| 20260906095630 | 77 | 123 | 0.0 | 0.0 | 0.00 | 0.00 | 0.00 | 83 | 1011.6 |
| 20260906095351 | 77 | 123 | 0.0 | 0.0 | 0.00 | 0.00 | 0.00 | 83 | 1011.4 |
| 20260906094824 | 78 | 123 | 0.0 | 0.0 | 0.00 | 0.00 | 0.00 | 83 | 1011.3 |
| 20260906094707 | 78 | 123 | 0.0 | 0.0 | 0.00 | 0.00 | 0.00 | 82 | 1011.3 |
| 20260906093554 | 78 | 123 | 0.0 | 0.0 | 0.00 | 0.00 | 0.00 | 83 | 1011.2 |
| 20260906093051 | 78 | 123 | 0.0 | 0.0 | 0.00 | 0.00 | 0.00 | 83 | 1011.2 |
| 20260906092548 | 78 | 123 | 0.0 | 0.0 | 0.00 | 0.00 | 0.00 | 83 | 1011.1 |
| 20260906092047 | 78 | 123 | 0.0 | 0.0 | 0.00 | 0.00 | 0.00 | 83 | 1011.1 |
| 20260906091526 | 78 | 123 | 0.0 | 0.0 | 0.00 | 0.00 | 0.00 | 83 | 1011.1 |
| 20260906090952 | 78 | 123 | 0.0 | 0.0 | 0.00 | 0.00 | 0.00 | 82 | 1011.1 |
| 20260906090450 | 78 | 123 | 0.0 | 0.0 | 0.00 | 0.00 | 0.00 | 82 | 1011.1 |
| 20260906085922 | 78 | 123 | 0.0 | 0.0 | 0.00 | 0.00 | 0.00 | 81 | 1011.1 |
| 20260906085422 | 78 | 123 | 0.0 | 0.0 | 0.00 | 0.00 | 0.00 | 81 | 1011.0 |
| 20260906085121 | 78 | 123 | 0.0 | 0.0 | 0.00 | 0.00 | 0.00 | 81 | 1011.0 |
| 20260906084400 | 78 | 123 | 0.0 | 0.0 | 0.00 | 0.00 | 0.00 | 81 | 1010.9 |
| 20260906083837 | 78 | 123 | 0.0 | 0.0 | 0.00 | 0.00 | 0.00 | 81 | 1011.0 |
| 20260906083309 | 78 | 123 | 0.0 | 0.0 | 0.00 | 0.00 | 0.00 | 81 | 1011.0 |
| 20260906082957 | 78 | 123 | 0.0 | 0.0 | 0.00 | 0.00 | 0.00 | 81 | 1011.0 |
| 20260906082236 | 78 | 123 | 0.0 | 0.0 | 0.00 | 0.00 | 0.00 | 81 | 1011.1 |
| 20260906081938 | 78 | 123 | 0.0 | 0.0 | 0.00 | 0.00 | 0.00 | 81 | 1011.1 |
| 20260906081144 | 78 | 123 | 0.0 | 0.0 | 0.00 | 0.00 | 0.00 | 81 | 1011.2 |
| 20260906080619 | 78 | 123 | 0.0 | 0.0 | 0.00 | 0.00 | 0.00 | 80 | 1011.3 |
| 20260906080337 | 79 | 123 | 0.0 | 0.0 | 0.00 | 0.00 | 0.00 | 80 | 1011.2 |
| 20260906075616 | 79 | 123 | 0.0 | 0.0 | 0.00 | 0.00 | 0.00 | 80 | 1011.3 |
| 20260906075106 | 79 | 123 | 0.0 | 0.0 | 0.00 | 0.00 | 0.00 | 79 | 1011.2 |
| 20260906074603 | 79 | 123 | 0.0 | 0.0 | 0.00 | 0.00 | 0.00 | 79 | 1011.2 |
| 20260906074104 | 79 | 123 | 0.0 | 0.0 | 0.00 | 0.00 | 0.00 | 79 | 1011.3 |
| 20260906073828 | 79 | 123 | 0.0 | 0.0 | 0.00 | 0.00 | 0.00 | 79 | 1011.3 |
| 20260906073055 | 79 | 123 | 0.0 | 1.7 | 0.00 | 0.00 | 0.00 | 78 | 1011.3 |
| 20260906072556 | 80 | 123 | 0.0 | 1.7 | 0.00 | 0.00 | 0.00 | 78 | 1011.3 |
| 20260906072031 | 80 | 228 | 0.0 | 0.9 | 0.00 | 0.00 | 0.00 | 77 | 1011.3 |
| 20260906071506 | 80 | 228 | 0.0 | 1.7 | 0.00 | 0.00 | 0.00 | 77 | 1011.3 |
| 20260906071006 | 80 | 153 | 0.0 | 1.7 | 0.00 | 0.00 | 0.00 | 77 | 1011.3 |
| 20260906070441 | 80 | 153 | 0.0 | 2.6 | 0.00 | 0.00 | 0.00 | 77 | 1011.2 |
| 20260906065938 | 80 | 233 | 0.0 | 2.6 | 0.00 | 0.00 | 0.00 | 77 | 1011.2 |
| 20260906065437 | 80 | 190 | 0.0 | 1.7 | 0.00 | 0.00 | 0.00 | 76 | 1011.2 |
| 20260906064908 | 80 | 205 | 0.0 | 1.7 | 0.00 | 0.00 | 0.00 | 76 | 1011.2 |
| 20260906064623 | 80 | 147 | 0.9 | 2.6 | 0.00 | 0.00 | 0.00 | 76 | 1011.1 |
| 20260906063909 | 81 | 125 | 0.9 | 3.5 | 0.00 | 0.00 | 0.00 | 76 | 1011.2 |
| 20260906063348 | 81 | 131 | 0.9 | 3.5 | 0.00 | 0.00 | 0.00 | 75 | 1011.3 |
| 20260906063114 | 81 | 243 | 0.9 | 3.5 | 0.00 | 0.00 | 0.00 | 75 | 1011.3 |
| 20260906062327 | 81 | 120 | 1.7 | 5.2 | 0.00 | 0.00 | 0.00 | 75 | 1011.4 |
| 20260906061828 | 81 | 177 | 1.7 | 5.2 | 0.00 | 0.00 | 0.00 | 74 | 1011.4 |
| 20260906061305 | 81 | 210 | 1.7 | 5.2 | 0.00 | 0.00 | 0.00 | 74 | 1011.5 |
| 20260906060738 | 81 | 139 | 1.7 | 6.1 | 0.00 | 0.00 | 0.00 | 74 | 1011.6 |
| 20260906060215 | 82 | 174 | 0.9 | 4.3 | 0.00 | 0.00 | 0.00 | 73 | 1011.6 |
| 20260906055656 | 82 | 256 | 0.9 | 4.3 | 0.00 | 0.00 | 0.00 | 73 | 1011.6 |
| 20260906055154 | 82 | 123 | 0.9 | 4.3 | 0.00 | 0.00 | 0.00 | 72 | 1011.6 |
| 20260906054656 | 82 | 267 | 1.7 | 5.2 | 0.00 | 0.00 | 0.00 | 72 | 1011.7 |
| 20260906054127 | 82 | 222 | 0.9 | 5.2 | 0.00 | 0.00 | 0.00 | 71 | 1011.6 |
| 20260906053626 | 82 | 247 | 0.9 | 3.5 | 0.00 | 0.00 | 0.00 | 71 | 1011.6 |
| 20260906053126 | 82 | 209 | 0.9 | 3.5 | 0.00 | 0.00 | 0.00 | 70 | 1011.5 |
| 20260906052623 | 82 | 231 | 1.7 | 3.5 | 0.00 | 0.00 | 0.00 | 69 | 1011.5 |
| 20260906052104 | 83 | 208 | 1.7 | 4.3 | 0.00 | 0.00 | 0.00 | 69 | 1011.4 |
| 20260906051539 | 83 | 250 | 1.7 | 4.3 | 0.00 | 0.00 | 0.00 | 68 | 1011.4 |
| 20260906051038 | 83 | 150 | 1.7 | 5.2 | 0.00 | 0.00 | 0.00 | 68 | 1011.4 |
| 20260906050525 | 83 | 225 | 1.7 | 5.2 | 0.00 | 0.00 | 0.00 | 68 | 1011.5 |
| 20260906050025 | 83 | 115 | 1.7 | 5.2 | 0.00 | 0.00 | 0.00 | 67 | 1011.5 |
| 20260906045528 | 83 | 131 | 0.9 | 4.3 | 0.00 | 0.00 | 0.00 | 67 | 1011.4 |
| 20260906045011 | 83 | 251 | 0.9 | 3.5 | 0.00 | 0.00 | 0.00 | 67 | 1011.3 |
| 20260906044509 | 83 | 158 | 0.0 | 1.7 | 0.00 | 0.00 | 0.00 | 67 | 1011.2 |
| 20260906044012 | 83 | 141 | 0.9 | 3.5 | 0.00 | 0.00 | 0.00 | 67 | 1011.2 |
| 20260906043451 | 84 | 153 | 1.7 | 6.1 | 0.00 | 0.00 | 0.00 | 67 | 1011.2 |
| 20260906042949 | 84 | 183 | 1.7 | 6.1 | 0.00 | 0.00 | 0.00 | 67 | 1011.3 |
| 20260906042451 | 84 | 212 | 0.9 | 4.3 | 0.00 | 0.00 | 0.00 | 66 | 1011.4 |
| 20260906041926 | 84 | 244 | 1.7 | 6.1 | 0.00 | 0.00 | 0.00 | 66 | 1011.5 |
| 20260906041636 | 84 | 109 | 1.7 | 6.1 | 0.00 | 0.00 | 0.00 | 65 | 1011.5 |
| 20260906040921 | 84 | 212 | 1.7 | 5.2 | 0.00 | 0.00 | 0.00 | 65 | 1011.5 |
| 20260906040424 | 84 | 213 | 1.7 | 5.2 | 0.00 | 0.00 | 0.00 | 64 | 1011.5 |
| 20260906035857 | 85 | 134 | 1.7 | 5.2 | 0.00 | 0.00 | 0.00 | 64 | 1011.5 |
| 20260906035332 | 85 | 210 | 1.7 | 5.2 | 0.00 | 0.00 | 0.00 | 64 | 1011.6 |
| 20260906034825 | 84 | 124 | 0.9 | 5.2 | 0.00 | 0.00 | 0.00 | 64 | 1011.5 |
| 20260906034324 | 84 | 284 | 0.0 | 1.7 | 0.00 | 0.00 | 0.00 | 65 | 1011.4 |
| 20260906034020 | 85 | 191 | 0.0 | 0.9 | 0.00 | 0.00 | 0.00 | 65 | 1011.4 |
| 20260906033254 | 85 | 228 | 0.9 | 3.5 | 0.00 | 0.00 | 0.00 | 65 | 1011.3 |
| 20260906032749 | 85 | 164 | 0.9 | 3.5 | 0.00 | 0.00 | 0.00 | 65 | 1011.3 |
| 20260906032248 | 85 | 203 | 0.9 | 4.3 | 0.00 | 0.00 | 0.00 | 64 | 1011.4 |
| 20260906031719 | 85 | 163 | 1.7 | 4.3 | 0.00 | 0.00 | 0.00 | 64 | 1011.4 |
| 20260906031657 | 85 | 136 | 1.7 | 5.2 | 0.00 | 0.00 | 0.00 | 64 | 1011.4 |
| 20260906030713 | 85 | 139 | 1.7 | 5.2 | 0.00 | 0.00 | 0.00 | 64 | 1011.3 |
| 20260906030147 | 85 | 144 | 2.6 | 6.1 | 0.00 | 0.00 | 0.00 | 63 | 1011.3 |
| 20260906025622 | 85 | 257 | 2.6 | 6.1 | 0.00 | 0.00 | 0.00 | 64 | 1011.3 |
| 20260906025052 | 85 | 223 | 1.7 | 6.1 | 0.00 | 0.00 | 0.00 | 64 | 1011.3 |
| 20260906024547 | 85 | 204 | 0.9 | 4.3 | 0.00 | 0.00 | 0.00 | 65 | 1011.3 |
| 20260906024023 | 86 | 249 | 0.9 | 4.3 | 0.00 | 0.00 | 0.00 | 65 | 1011.2 |
| 20260906023455 | 86 | 134 | 1.7 | 6.1 | 0.00 | 0.00 | 0.00 | 65 | 1011.1 |
| 20260906022926 | 86 | 158 | 2.6 | 6.1 | 0.00 | 0.00 | 0.00 | 64 | 1011.1 |
| 20260906022423 | 86 | 144 | 1.7 | 5.2 | 0.00 | 0.00 | 0.00 | 64 | 1011.0 |
| 20260906022126 | 86 | 146 | 2.6 | 7.0 | 0.00 | 0.00 | 0.00 | 63 | 1010.9 |
| 20260906021335 | 86 | 212 | 2.6 | 8.7 | 0.00 | 0.00 | 0.00 | 63 | 1010.8 |
| 20260906020838 | 86 | 236 | 3.5 | 8.7 | 0.00 | 0.00 | 0.00 | 62 | 1010.8 |
| 20260906020312 | 87 | 155 | 2.6 | 7.8 | 0.00 | 0.00 | 0.00 | 62 | 1010.6 |
| 20260906015743 | 87 | 204 | 1.7 | 7.8 | 0.00 | 0.00 | 0.00 | 62 | 1010.5 |
| 20260906015240 | 87 | 110 | 2.6 | 7.8 | 0.00 | 0.00 | 0.00 | 62 | 1010.6 |
| 20260906014737 | 87 | 163 | 3.5 | 7.8 | 0.00 | 0.00 | 0.00 | 61 | 1010.5 |
| 20260906014235 | 87 | 110 | 2.6 | 7.8 | 0.00 | 0.00 | 0.00 | 61 | 1010.6 |
| 20260906013954 | 87 | 125 | 2.6 | 7.0 | 0.00 | 0.00 | 0.00 | 60 | 1010.5 |
| 20260906013210 | 87 | 115 | 3.5 | 7.0 | 0.00 | 0.00 | 0.00 | 59 | 1010.3 |
| 20260906012702 | 87 | 265 | 3.5 | 7.8 | 0.00 | 0.00 | 0.00 | 59 | 1010.2 |
| 20260906012136 | 87 | 128 | 3.5 | 8.7 | 0.00 | 0.00 | 0.00 | 58 | 1010.1 |
| 20260906011623 | 88 | 167 | 3.5 | 8.7 | 0.00 | 0.00 | 0.00 | 57 | 1010.1 |
| 20260906011126 | 88 | 122 | 3.5 | 10.4 | 0.00 | 0.00 | 0.00 | 56 | 1010.0 |
| 20260906010621 | 88 | 136 | 3.5 | 10.4 | 0.00 | 0.00 | 0.00 | 56 | 1010.0 |
| 20260906010120 | 88 | 248 | 4.3 | 13.0 | 0.00 | 0.00 | 0.00 | 55 | 1010.0 |
| 20260906005551 | 89 | 134 | 5.2 | 13.0 | 0.00 | 0.00 | 0.00 | 54 | 1009.9 |
| 20260906005051 | 89 | 176 | 4.3 | 11.3 | 0.00 | 0.00 | 0.00 | 53 | 1009.9 |
| 20260906004550 | 90 | 147 | 5.2 | 10.4 | 0.00 | 0.00 | 0.00 | 52 | 1010.0 |
| 20260906004051 | 91 | 108 | 5.2 | 9.6 | 0.00 | 0.00 | 0.00 | 50 | 1009.9 |
| 20260906004031 | 92 | 219 | 5.2 | 10.4 | 0.00 | 0.00 | 0.00 | 48 | 1009.9 |
| 20260906003046 | 93 | 133 | 5.2 | 10.4 | 0.00 | 0.00 | 0.00 | 46 | 1009.9 |
| 20260906002807 | 93 | 115 | 5.2 | 10.4 | 0.00 | 0.00 | 0.00 | 44 | 1009.8 |
| 20260906002046 | 94 | 119 | 4.3 | 10.4 | 0.00 | 0.00 | 0.00 | 44 | 1009.7 |
| 20260906001518 | 95 | 132 | 4.3 | 8.7 | 0.00 | 0.00 | 0.00 | 44 | 1009.6 |
| 20260906000953 | 95 | 112 | 4.3 | 10.4 | 0.00 | 0.00 | 0.00 | 43 | 1009.6 |
| 20260906000644 | 96 | 136 | 5.2 | 10.4 | 0.00 | 0.00 | 0.00 | 42 | 1009.5 |
| 20260905235922 | 96 | 136 | 4.3 | 9.6 | 0.00 | 0.00 | 0.00 | 41 | 1009.4 |
| 20260905235419 | 97 | 135 | 3.5 | 9.6 | 0.00 | 0.00 | 0.00 | 40 | 1009.4 |
| 20260905235142 | 99 | 144 | 1.7 | 5.2 | 0.00 | 0.00 | 0.00 | 37 | 1009.3 |
| 20260905234612 | 100 | 123 | 0.0 | 2.6 | 0.00 | 0.00 | 0.00 | 35 | 1009.2 |
| 20260905234053 | 99 | 136 | 0.0 | 2.6 | 0.00 | 0.00 | 0.00 | 35 | 1009.2 |
| 20260905233553 | 99 | 238 | 0.9 | 3.5 | 0.00 | 0.00 | 0.00 | 35 | 1009.1 |
| 20260905232833 | 99 | 155 | 0.9 | 3.5 | 0.00 | 0.00 | 0.00 | 35 | 1009.1 |
| 20260905232329 | 99 | 110 | 0.0 | 3.5 | 0.00 | 0.00 | 0.00 | 35 | 1009.1 |
| 20260905231803 | 99 | 115 | 0.9 | 2.6 | 0.00 | 0.00 | 0.00 | 36 | 1009.2 |
| 20260905231253 | 99 | 146 | 1.7 | 4.3 | 0.00 | 0.00 | 0.00 | 35 | 1009.3 |
| 20260905230751 | 99 | 131 | 1.7 | 5.2 | 0.00 | 0.00 | 0.00 | 35 | 1009.3 |
| 20260905230250 | 100 | 129 | 1.7 | 5.2 | 0.00 | 0.00 | 0.00 | 34 | 1009.3 |
| 20260905225725 | 100 | 146 | 1.7 | 6.1 | 0.00 | 0.00 | 0.00 | 35 | 1009.2 |
| 20260905225227 | 100 | 85 | 1.7 | 6.1 | 0.00 | 0.00 | 0.00 | 35 | 1009.2 |
| 20260905224725 | 100 | 256 | 0.9 | 5.2 | 0.00 | 0.00 | 0.00 | 34 | 1009.2 |
| 20260905224225 | 101 | 243 | 0.9 | 3.5 | 0.00 | 0.00 | 0.00 | 34 | 1009.2 |